Terminal Aerodrome Forecast
Issued by NWS Spokane, WA

Home | Current Version | Previous Version | Text Only | Print | Product List | Glossary On
Versions: 1 2 3 4 5 6 7 8 9 10 11 12 13 14 15 16 17 18 19 20 21 22 23 24 25 26 27 28 29 30 31 32 33 34 35 36 37 38 39 40
000
FTUS46 KOTX 170719 AAA
TAFEAT
TAF AMD
KEAT 170719Z 1707/1806 29006KT P6SM OVC040
     FM170800 28004KT 5SM -SN BR OVC025
     FM171100 28007KT 1SM -SN BR OVC008
     FM171700 28003KT 2SM BR VCSH OVC008
     FM172000 00000KT 5SM BR SCT008 OVC012
     FM180200 16003KT 3SM -RASN OVC007=

USA.gov is the U.S. government's official web portal to all federal, state and local government web resources and services.